This is the latest recevied weather packets stored in our database for station/object KF5WCW-1. If no packets are shown the sender has not sent any weather packets the latest 10 day(s).
| Time | Temp. | Humidity | Pressure | Rain* | Wind** | Luminosity | Snow |
|---|---|---|---|---|---|---|---|
| 1777570280 | 3.33° C | 90% | 0 hPa | 0 mm | - | - | - |
| 1777569980 | 3.33° C | 91% | 0 hPa | 0 mm | - | - | - |
| 1777569680 | 3.33° C | 91% | 0 hPa | 0 mm | - | - | - |
| 1777569380 | 3.33° C | 92% | 0 hPa | 0 mm | - | - | - |
| 1777569080 | 3.33° C | 89% | 0 hPa | 0 mm | - | - | - |
| 1777568780 | 3.89° C | 87% | 0 hPa | 0 mm | - | - | - |
| 1777568480 | 5° C | 78% | 0 hPa | 0 mm | - | - | - |
| 1777568180 | 5.56° C | 75% | 0 hPa | 0 mm | - | - | - |
| 1777567880 | 5° C | 75% | 0 hPa | 0 mm | - | - | - |
| 1777567580 | 5° C | 76% | 0 hPa | 0 mm | - | - | - |
| 1777567280 | 5° C | 75% | 0 hPa | 0 mm | - | - | - |
| 1777566980 | 5° C | 75% | 0 hPa | 0 mm | - | - | - |
| 1777566680 | 5.56° C | 75% | 0 hPa | 0 mm | - | - | - |
| 1777566380 | 5.56° C | 73% | 0 hPa | 0 mm | - | - | - |
| 1777566080 | 5.56° C | 73% | 0 hPa | 0 mm | - | - | - |
| 1777565780 | 5.56° C | 73% | 0 hPa | 0 mm | - | - | - |
| 1777565480 | 5.56° C | 72% | 0 hPa | 0 mm | - | - | - |
| 1777565180 | 6.11° C | 70% | 0 hPa | 0 mm | - | - | - |
| 1777564880 | 6.11° C | 72% | 0 hPa | 0 mm | - | - | - |
| 1777564580 | 6.11° C | 72% | 0 hPa | 0 mm | - | - | - |
| 1777564280 | 6.11° C | 71% | 0 hPa | 0 mm | - | - | - |
| 1777563981 | 6.11° C | 74% | 0 hPa | 0 mm | - | - | - |
| 1777563681 | 6.11° C | 75% | 0 hPa | 0 mm | - | - | - |
| 1777563380 | 6.11° C | 75% | 0 hPa | 0 mm | - | - | - |
| 1777563080 | 5.56° C | 77% | 0 hPa | 0 mm | - | - | - |
* Rain latest hour (hover to see other rain measurements)
** Current wind speed in m/s (hover to see current wind gust speed)